Time;durP1;ratioP1;P1;durP2;ratioP2;P2;SDS_P1;SDS_P2;PMS_P1;PMS_P2;Temp;Humidity;BMP_temperature;BMP_pressure;BME280_temperature;BME280_humidity;BME280_pressure;Samples;Min_cycle;Max_cycle;Signal;HPM_P1;HPM_P2
2022/11/13 00:01:30;;;;;;;21.20;12.43;;;5.80;99.90;;;;;;7407488;19;19918;-88
2022/11/13 00:04:00;;;;;;;18.75;11.23;;;5.80;99.90;;;;;;7407835;19;19935;-88
2022/11/13 00:06:30;;;;;;;18.10;10.60;;;5.80;99.90;;;;;;7407847;19;19914;-88
2022/11/13 00:08:58;;;;;;;23.10;13.07;;;5.80;99.90;;;;;;7407977;19;19919;-87
2022/11/13 00:11:27;;;;;;;20.10;12.85;;;5.80;99.90;;;;;;7407467;19;19914;-87
2022/11/13 00:13:57;;;;;;;17.67;9.90;;;5.80;99.90;;;;;;7406172;19;19933;-89
2022/11/13 00:16:28;;;;;;;17.67;11.40;;;5.70;99.90;;;;;;7407474;19;19919;-87
2022/11/13 00:18:57;;;;;;;19.73;13.10;;;5.70;99.90;;;;;;7407089;19;19919;-87
2022/11/13 00:21:28;;;;;;;20.48;11.77;;;5.70;99.90;;;;;;7406904;19;19938;-88
2022/11/13 00:23:58;;;;;;;23.48;13.55;;;5.90;99.90;;;;;;7407259;19;19935;-87
2022/11/13 00:26:27;;;;;;;;;;;6.00;99.90;;;;;;7408666;19;19929;-87
2022/11/13 00:28:57;;;;;;;17.38;9.90;;;6.10;99.90;;;;;;7407035;19;19915;-87
2022/11/13 00:31:29;;;;;;;21.20;12.07;;;6.20;99.90;;;;;;7408130;19;19925;-87
2022/11/13 00:33:59;;;;;;;18.58;12.38;;;6.10;99.90;;;;;;7406316;19;19930;-87
2022/11/13 00:36:29;;;;;;;;;;;6.10;99.90;;;;;;7408907;19;20337;-87
2022/11/13 00:38:58;;;;;;;17.65;10.15;;;6.10;99.90;;;;;;7405749;19;19911;-87
2022/11/13 00:41:27;;;;;;;18.38;10.77;;;6.20;99.90;;;;;;7405817;19;20329;-88
2022/11/13 00:43:55;;;;;;;16.48;9.95;;;6.20;99.90;;;;;;7406677;19;19919;-87
2022/11/13 00:46:24;;;;;;;17.05;10.75;;;6.30;99.90;;;;;;7406651;19;19925;-87
2022/11/13 00:48:56;;;;;;;18.42;9.57;;;6.30;99.90;;;;;;7406477;19;19910;-87
2022/11/13 00:51:25;;;;;;;19.55;11.25;;;6.30;99.90;;;;;;7406668;19;19919;-84
2022/11/13 00:53:54;;;;;;;18.27;11.45;;;6.20;99.90;;;;;;7405457;19;20351;-87
2022/11/13 00:56:23;;;;;;;16.30;9.73;;;6.20;99.90;;;;;;7406035;19;19929;-88
2022/11/13 00:58:52;;;;;;;17.63;11.95;;;6.20;99.90;;;;;;7406603;19;19929;-87
2022/11/13 01:01:22;;;;;;;17.73;11.30;;;6.10;99.90;;;;;;7406459;19;19920;-88
2022/11/13 01:03:51;;;;;;;20.20;12.63;;;6.10;99.90;;;;;;7406079;19;19925;-87
2022/11/13 01:06:24;;;;;;;17.25;9.77;;;6.20;99.90;;;;;;7406028;19;19911;-87
2022/11/13 01:08:56;;;;;;;26.42;12.93;;;6.20;99.90;;;;;;7406282;19;19948;-87
2022/11/13 01:11:27;;;;;;;17.70;10.77;;;6.20;99.90;;;;;;7405757;19;19910;-88
2022/11/13 01:13:57;;;;;;;16.30;11.30;;;6.20;99.90;;;;;;7405101;19;19925;-87
2022/11/13 01:16:31;;;;;;;16.92;11.73;;;6.10;99.90;;;;;;7405340;19;19930;-88
2022/11/13 01:19:00;;;;;;;16.58;11.05;;;6.10;99.90;;;;;;7405977;19;19919;-87
2022/11/13 01:21:31;;;;;;;19.25;12.25;;;6.10;99.90;;;;;;7406084;19;19914;-87
2022/11/13 01:24:00;;;;;;;17.50;10.57;;;6.10;99.90;;;;;;7405388;19;19917;-87
2022/11/13 01:26:31;;;;;;;15.27;10.32;;;6.10;99.90;;;;;;7404882;19;19918;-87
2022/11/13 01:29:01;;;;;;;17.35;9.65;;;6.10;99.90;;;;;;7404955;19;19925;-87
2022/11/13 01:31:32;;;;;;;17.50;10.20;;;6.10;99.90;;;;;;7409551;19;20333;-87
2022/11/13 01:34:01;;;;;;;21.55;10.23;;;6.20;99.90;;;;;;7404296;19;20272;-88
2022/11/13 01:36:32;;;;;;;18.80;10.82;;;6.20;99.90;;;;;;7405138;19;19918;-87
2022/11/13 01:39:01;;;;;;;16.63;10.20;;;6.30;99.90;;;;;;7405086;19;20361;-87
2022/11/13 01:41:32;;;;;;;15.55;10.68;;;6.30;99.90;;;;;;7405213;19;19911;-88
2022/11/13 01:44:03;;;;;;;18.23;9.38;;;6.40;99.90;;;;;;7405126;19;20237;-88
2022/11/13 01:46:33;;;;;;;;;;;6.40;99.90;;;;;;7407491;19;19946;-87
2022/11/13 01:49:16;;;;;;;18.45;10.43;;;6.30;99.90;;;;;;7404811;19;19911;-87
2022/11/13 01:51:51;;;;;;;16.95;9.88;;;6.40;99.90;;;;;;7404470;19;19914;-88
2022/11/13 01:54:24;;;;;;;19.98;11.27;;;6.40;99.90;;;;;;7403747;19;20329;-87
2022/11/13 01:56:54;;;;;;;17.38;11.40;;;6.40;99.90;;;;;;7404392;19;19922;-87
2022/11/13 01:59:27;;;;;;;14.40;9.38;;;6.40;99.90;;;;;;7405041;19;19933;-87
2022/11/13 02:01:56;;;;;;;19.45;9.85;;;6.40;99.90;;;;;;7404381;19;20253;-86
2022/11/13 02:04:26;;;;;;;18.92;9.77;;;6.30;99.90;;;;;;7404035;19;20337;-87
2022/11/13 02:07:01;;;;;;;16.67;11.32;;;6.30;99.90;;;;;;7404657;19;19926;-87
2022/11/13 02:09:35;;;;;;;15.55;9.45;;;6.30;99.90;;;;;;7404166;19;20248;-88
2022/11/13 02:12:05;;;;;;;17.88;10.98;;;6.20;99.90;;;;;;7404441;19;19910;-87
2022/11/13 02:14:37;;;;;;;15.43;9.65;;;6.20;99.90;;;;;;7403127;19;19982;-87
2022/11/13 02:17:09;;;;;;;20.38;9.57;;;6.10;99.90;;;;;;7404988;19;20666;-86
2022/11/13 02:19:41;;;;;;;18.13;11.73;;;6.20;99.90;;;;;;7404550;19;19911;-86
2022/11/13 02:22:21;;;;;;;18.42;9.82;;;6.10;99.90;;;;;;7403750;19;19914;-86
2022/11/13 02:24:54;;;;;;;17.08;10.68;;;6.10;99.90;;;;;;7403251;19;19910;-87
2022/11/13 02:27:28;;;;;;;18.38;10.90;;;6.00;99.90;;;;;;7402546;19;19915;-87
2022/11/13 02:29:57;;;;;;;18.88;10.57;;;6.00;99.90;;;;;;7407274;19;19914;-87
2022/11/13 02:32:26;;;;;;;16.63;10.13;;;6.00;99.90;;;;;;7403617;19;19943;-87
2022/11/13 02:34:55;;;;;;;17.83;9.27;;;5.90;99.90;;;;;;7402545;19;19918;-86
2022/11/13 02:37:24;;;;;;;17.83;11.38;;;5.90;99.90;;;;;;7403473;19;19918;-87
2022/11/13 02:39:55;;;;;;;15.25;9.98;;;5.90;99.90;;;;;;7403226;19;19910;-86
2022/11/13 02:42:24;;;;;;;17.83;10.00;;;5.90;99.90;;;;;;7403279;19;20046;-87
2022/11/13 02:44:53;;;;;;;18.25;10.77;;;5.80;99.90;;;;;;7403324;19;20320;-87
2022/11/13 02:47:22;;;;;;;22.15;11.35;;;5.80;99.90;;;;;;7403294;19;19911;-87
2022/11/13 02:49:51;;;;;;;15.20;9.27;;;5.80;99.90;;;;;;7403485;19;19910;-86
2022/11/13 02:52:20;;;;;;;17.23;10.80;;;5.80;99.90;;;;;;7402760;19;19921;-87
2022/11/13 02:54:49;;;;;;;15.40;9.88;;;5.90;99.90;;;;;;7401557;19;19918;-87
2022/11/13 02:57:20;;;;;;;17.17;9.10;;;5.90;99.90;;;;;;7402798;19;19919;-87
2022/11/13 02:59:49;;;;;;;15.50;10.23;;;6.00;99.90;;;;;;7402624;19;19922;-88
2022/11/13 03:02:18;;;;;;;17.52;10.40;;;6.00;99.90;;;;;;7403565;19;19922;-87
2022/11/13 03:04:48;;;;;;;20.02;9.70;;;6.00;99.90;;;;;;7409551;19;19907;-87
2022/11/13 03:07:17;;;;;;;17.10;10.88;;;6.00;99.90;;;;;;7409483;19;20409;-87
2022/11/13 03:09:46;;;;;;;19.42;11.10;;;6.00;99.90;;;;;;7408941;19;19919;-88
2022/11/13 03:12:16;;;;;;;17.20;10.40;;;5.90;99.90;;;;;;7409182;19;19919;-87
2022/11/13 03:14:48;;;;;;;17.73;10.77;;;5.80;99.90;;;;;;7407569;19;19914;-87
2022/11/13 03:17:17;;;;;;;15.80;10.63;;;5.80;99.90;;;;;;7409027;19;19933;-87
2022/11/13 03:19:46;;;;;;;14.20;9.15;;;5.80;99.90;;;;;;7408943;19;19990;-87
2022/11/13 03:22:15;;;;;;;15.93;9.65;;;5.80;99.90;;;;;;7408989;19;20017;-88
2022/11/13 03:24:44;;;;;;;18.52;10.38;;;5.70;99.90;;;;;;7408259;19;20362;-87
2022/11/13 03:27:13;;;;;;;15.70;10.07;;;5.70;99.90;;;;;;7408161;19;19922;-87
2022/11/13 03:29:41;;;;;;;16.98;10.88;;;5.70;99.90;;;;;;7409548;19;19919;-86
2022/11/13 03:32:13;;;;;;;18.60;10.57;;;5.80;99.90;;;;;;7408894;19;19915;-87
2022/11/13 03:34:42;;;;;;;14.30;9.48;;;5.70;99.90;;;;;;7406938;19;19915;-87
2022/11/13 03:37:10;;;;;;;17.73;8.70;;;5.70;99.90;;;;;;7408212;19;19918;-87
2022/11/13 03:39:39;;;;;;;16.48;10.20;;;5.70;99.90;;;;;;7408283;19;19970;-87
2022/11/13 03:42:08;;;;;;;17.48;9.23;;;5.60;99.90;;;;;;7408099;19;19921;-87
2022/11/13 03:44:37;;;;;;;16.23;10.20;;;5.60;99.90;;;;;;7408137;19;19923;-86
2022/11/13 03:47:06;;;;;;;17.38;9.73;;;5.50;99.90;;;;;;7408187;19;19918;-88
2022/11/13 03:49:37;;;;;;;20.27;9.93;;;5.50;99.90;;;;;;7408104;19;19910;-87
2022/11/13 03:52:07;;;;;;;17.77;10.65;;;5.50;99.90;;;;;;7407818;19;19922;-87
2022/11/13 03:54:35;;;;;;;16.48;10.82;;;5.40;99.90;;;;;;7407597;19;19921;-88
2022/11/13 03:57:05;;;;;;;17.40;11.10;;;5.40;99.90;;;;;;7407791;19;19921;-87
2022/11/13 03:59:34;;;;;;;14.85;8.63;;;5.50;99.90;;;;;;7407680;19;19959;-88
2022/11/13 04:02:03;;;;;;;16.35;10.32;;;5.50;99.90;;;;;;7407877;19;19966;-87
2022/11/13 04:04:32;;;;;;;17.95;10.95;;;5.50;99.90;;;;;;7408047;19;19914;-87
2022/11/13 04:07:03;;;;;;;17.85;10.80;;;5.50;99.90;;;;;;7407521;19;20345;-86
2022/11/13 04:09:32;;;;;;;17.33;10.23;;;5.50;99.90;;;;;;7407939;19;19911;-87
2022/11/13 04:12:01;;;;;;;18.85;11.15;;;5.50;99.90;;;;;;7407741;19;19911;-87
2022/11/13 04:14:30;;;;;;;15.32;10.23;;;5.40;99.90;;;;;;7404446;19;19925;-86
2022/11/13 04:16:59;;;;;;;15.55;10.45;;;5.40;99.90;;;;;;7407260;19;20280;-87
2022/11/13 04:19:28;;;;;;;18.27;9.57;;;5.40;99.90;;;;;;7408098;19;20007;-86
2022/11/13 04:21:57;;;;;;;15.57;10.27;;;5.40;99.90;;;;;;7406844;19;19915;-87
2022/11/13 04:24:28;;;;;;;17.00;9.93;;;5.40;99.90;;;;;;7407523;19;19918;-88
2022/11/13 04:26:57;;;;;;;17.75;9.30;;;5.40;99.90;;;;;;7409422;19;20302;-87
2022/11/13 04:29:26;;;;;;;18.00;10.50;;;5.30;99.90;;;;;;7406930;19;19917;-87
2022/11/13 04:31:55;;;;;;;17.95;10.75;;;5.30;99.90;;;;;;7406776;19;20303;-86
2022/11/13 04:34:24;;;;;;;19.38;11.02;;;5.30;99.90;;;;;;7405789;19;19910;-87
2022/11/13 04:36:53;;;;;;;17.17;9.85;;;5.40;99.90;;;;;;7406852;19;19919;-88
2022/11/13 04:39:21;;;;;;;16.35;8.48;;;5.30;99.90;;;;;;7406662;19;19922;-87
2022/11/13 04:44:34;;;;;;;15.05;10.27;;;5.20;99.90;;;;;;7406575;19;19915;-87
2022/11/13 04:47:03;;;;;;;14.18;8.52;;;5.10;99.90;;;;;;7406354;19;20274;-87
2022/11/13 04:49:32;;;;;;;17.17;10.88;;;5.20;99.90;;;;;;7406683;19;19915;-87
2022/11/13 04:52:01;;;;;;;14.13;8.27;;;5.20;99.90;;;;;;7406278;19;20285;-87
2022/11/13 04:54:30;;;;;;;18.85;10.15;;;5.20;99.90;;;;;;7406848;19;19915;-87
2022/11/13 04:57:01;;;;;;;18.25;10.02;;;5.20;99.90;;;;;;7405892;19;20277;-87
2022/11/13 04:59:30;;;;;;;15.27;9.60;;;5.10;99.90;;;;;;7406114;19;19937;-87
2022/11/13 05:01:59;;;;;;;19.70;10.57;;;5.10;99.90;;;;;;7406585;19;20359;-87
2022/11/13 05:04:28;;;;;;;17.48;9.52;;;5.00;99.90;;;;;;7406074;19;19915;-87
2022/11/13 05:06:57;;;;;;;16.13;10.02;;;5.00;99.90;;;;;;7406100;19;19922;-87
2022/11/13 05:09:25;;;;;;;19.40;11.43;;;5.00;99.90;;;;;;7406186;19;19910;-88
2022/11/13 05:11:54;;;;;;;17.02;9.98;;;4.90;99.90;;;;;;7406034;19;19925;-87
2022/11/13 05:14:26;;;;;;;15.38;9.13;;;4.90;99.90;;;;;;7405762;19;19922;-86
2022/11/13 05:16:55;;;;;;;18.50;9.63;;;5.00;99.90;;;;;;7403772;19;19926;-86
2022/11/13 05:19:24;;;;;;;16.50;9.48;;;5.10;99.90;;;;;;7405648;19;20006;-87
2022/11/13 05:21:53;;;;;;;16.38;10.23;;;5.10;99.90;;;;;;7405240;19;19918;-87
2022/11/13 05:24:22;;;;;;;15.05;8.85;;;5.10;99.90;;;;;;7407018;19;20252;-87
2022/11/13 05:26:51;;;;;;;15.07;9.23;;;5.10;99.90;;;;;;7403525;19;20325;-87
2022/11/13 05:29:20;;;;;;;16.42;9.20;;;5.10;99.90;;;;;;7405545;19;20246;-87
2022/11/13 05:31:52;;;;;;;15.40;8.85;;;5.10;99.90;;;;;;7403889;19;19914;-87
2022/11/13 05:34:21;;;;;;;16.40;9.93;;;5.10;99.90;;;;;;7404593;19;19921;-86
2022/11/13 05:36:49;;;;;;;15.77;8.70;;;5.00;99.90;;;;;;7403876;19;19934;-87
2022/11/13 05:39:18;;;;;;;18.58;9.98;;;4.90;99.90;;;;;;7405172;19;19910;-87
2022/11/13 05:41:47;;;;;;;16.92;9.73;;;4.80;99.90;;;;;;7405168;19;19921;-87
2022/11/13 05:44:16;;;;;;;13.60;9.48;;;4.80;99.90;;;;;;7404978;19;19931;-88
2022/11/13 05:46:45;;;;;;;14.73;9.18;;;4.80;99.90;;;;;;7404788;19;19914;-87
2022/11/13 05:49:16;;;;;;;16.55;9.60;;;4.70;99.90;;;;;;7404578;19;19919;-88
2022/11/13 05:51:45;;;;;;;19.38;11.40;;;4.60;99.90;;;;;;7405104;19;19918;-86
2022/11/13 05:54:14;;;;;;;16.98;9.57;;;4.60;99.90;;;;;;7404763;19;19931;-87
2022/11/13 05:56:43;;;;;;;16.42;9.60;;;4.60;99.90;;;;;;7403014;19;19910;-87
2022/11/13 05:59:12;;;;;;;14.10;8.65;;;4.50;99.90;;;;;;7404641;19;19926;-87
2022/11/13 06:01:42;;;;;;;13.57;7.68;;;4.60;99.90;;;;;;7404741;19;20268;-86
2022/11/13 06:04:11;;;;;;;14.40;9.57;;;4.70;99.90;;;;;;7404889;19;19921;-86
2022/11/13 06:06:43;;;;;;;16.73;9.23;;;4.70;99.90;;;;;;7404429;19;19914;-87
2022/11/13 06:09:16;;;;;;;13.70;8.68;;;4.70;99.90;;;;;;7404956;19;19915;-87
2022/11/13 06:11:45;;;;;;;12.35;8.60;;;4.80;99.90;;;;;;7404278;19;19958;-87
2022/11/13 06:14:14;;;;;;;13.63;8.45;;;4.80;99.90;;;;;;7404414;19;19918;-87
2022/11/13 06:16:43;;;;;;;13.93;8.25;;;4.80;99.90;;;;;;7402956;19;19915;-86
2022/11/13 06:19:12;;;;;;;13.02;9.07;;;4.70;99.90;;;;;;7404291;19;19919;-87
2022/11/13 06:21:45;;;;;;;14.25;8.68;;;4.60;99.90;;;;;;7403846;19;19919;-86
2022/11/13 06:24:14;;;;;;;13.30;8.88;;;4.60;99.90;;;;;;7407420;19;19911;-87
2022/11/13 06:26:43;;;;;;;15.18;9.35;;;4.50;99.90;;;;;;7402897;19;19927;-87
2022/11/13 06:29:13;;;;;;;13.98;8.65;;;4.30;99.90;;;;;;7403628;19;19925;-86
2022/11/13 06:31:42;;;;;;;14.70;8.30;;;4.40;99.90;;;;;;7403830;19;20247;-86
2022/11/13 06:34:11;;;;;;;14.65;8.75;;;4.30;99.90;;;;;;7402803;19;19911;-87
2022/11/13 06:36:40;;;;;;;12.93;7.80;;;4.40;99.90;;;;;;7402028;19;19915;-86
2022/11/13 06:39:12;;;;;;;14.55;7.22;;;4.50;99.90;;;;;;7401477;19;20224;-87
2022/11/13 06:41:41;;;;;;;14.57;8.32;;;4.50;99.90;;;;;;7403300;19;19919;-87
2022/11/13 06:44:10;;;;;;;13.27;8.40;;;4.40;99.90;;;;;;7403324;19;19911;-86
2022/11/13 06:46:39;;;;;;;14.10;8.57;;;4.40;99.90;;;;;;7403016;19;19919;-86
2022/11/13 06:49:08;;;;;;;16.17;9.23;;;4.60;99.90;;;;;;7402854;19;19970;-86
2022/11/13 06:51:37;;;;;;;18.33;9.82;;;4.50;99.90;;;;;;7406376;19;20274;-86
2022/11/13 06:54:06;;;;;;;15.18;8.93;;;4.50;99.90;;;;;;7402734;19;19914;-86
2022/11/13 06:56:42;;;;;;;14.23;8.60;;;4.50;99.90;;;;;;7401647;19;19943;-87
2022/11/13 06:59:12;;;;;;;15.15;9.07;;;4.60;99.90;;;;;;7402594;19;19933;-86
2022/11/13 07:01:41;;;;;;;16.95;9.13;;;4.70;99.90;;;;;;7402722;19;19919;-86
2022/11/13 07:04:14;;;;;;;14.30;8.77;;;4.70;99.90;;;;;;7402668;19;19915;-87
2022/11/13 07:06:43;;;;;;;14.05;7.28;;;4.60;99.90;;;;;;7402873;19;20237;-87
2022/11/13 07:09:11;;;;;;;14.80;7.93;;;4.80;99.90;;;;;;7402681;19;19929;-86
2022/11/13 07:11:43;;;;;;;15.35;9.10;;;5.00;99.90;;;;;;7402155;19;20007;-87
2022/11/13 07:14:13;;;;;;;15.15;9.18;;;5.00;99.90;;;;;;7402256;19;19979;-86
2022/11/13 07:16:42;;;;;;;12.45;8.05;;;5.00;99.90;;;;;;7401126;19;20328;-86
2022/11/13 07:19:11;;;;;;;17.63;8.70;;;5.00;99.90;;;;;;7401920;19;19926;-86
2022/11/13 07:21:40;;;;;;;16.48;8.65;;;4.80;99.90;;;;;;7403158;19;20341;-85
2022/11/13 07:24:09;;;;;;;15.52;8.60;;;4.80;99.90;;;;;;7402984;19;19936;-86
2022/11/13 07:26:38;;;;;;;13.48;8.35;;;4.70;99.90;;;;;;7401130;19;19925;-86
2022/11/13 07:29:10;;;;;;;13.57;8.98;;;4.70;99.90;;;;;;7401538;19;20384;-87
2022/11/13 07:31:39;;;;;;;15.82;8.18;;;4.70;99.90;;;;;;7401580;19;19922;-87
2022/11/13 07:34:08;;;;;;;13.32;8.18;;;4.80;99.90;;;;;;7400736;19;19951;-87
2022/11/13 07:36:37;;;;;;;13.82;8.77;;;4.80;99.90;;;;;;7400376;19;19919;-87
2022/11/13 07:39:06;;;;;;;14.23;8.55;;;4.80;99.90;;;;;;7401610;19;19919;-87
2022/11/13 07:41:35;;;;;;;13.93;9.40;;;4.80;99.90;;;;;;7401644;19;19911;-87
2022/11/13 07:44:04;;;;;;;13.20;8.52;;;4.90;99.90;;;;;;7401060;19;19933;-87
2022/11/13 07:46:35;;;;;;;11.95;8.13;;;5.00;99.90;;;;;;7400993;19;19921;-87
2022/11/13 07:49:04;;;;;;;14.98;8.55;;;5.00;99.90;;;;;;7403643;19;19918;-86
2022/11/13 07:51:33;;;;;;;15.68;8.88;;;5.00;99.90;;;;;;7408297;19;19922;-87
2022/11/13 07:54:02;;;;;;;13.65;7.95;;;5.00;99.90;;;;;;7408285;19;19918;-86
2022/11/13 07:56:31;;;;;;;13.40;9.25;;;5.10;99.90;;;;;;7406292;19;19911;-86
2022/11/13 07:59:00;;;;;;;13.18;8.52;;;5.10;99.90;;;;;;7407827;19;20008;-85
2022/11/13 08:01:29;;;;;;;15.73;8.57;;;5.10;99.90;;;;;;7407947;19;19937;-87
2022/11/13 08:04:00;;;;;;;11.63;7.72;;;5.20;99.90;;;;;;7407680;19;20348;-87
2022/11/13 08:06:29;;;;;;;12.57;7.75;;;5.40;99.90;;;;;;7407338;19;19931;-86
2022/11/13 08:08:58;;;;;;;13.52;7.97;;;5.60;99.90;;;;;;7408051;19;19919;-87
2022/11/13 08:11:27;;;;;;;12.80;7.72;;;5.70;99.90;;;;;;7407261;19;19914;-86
2022/11/13 08:13:56;;;;;;;10.90;7.47;;;5.80;99.90;;;;;;7407751;19;19914;-87
2022/11/13 08:16:25;;;;;;;14.63;8.30;;;5.80;99.90;;;;;;7406464;19;20016;-86
2022/11/13 08:18:54;;;;;;;11.73;8.20;;;5.80;99.90;;;;;;7407449;19;19914;-87
2022/11/13 08:21:25;;;;;;;18.58;8.15;;;5.80;99.90;;;;;;7410738;19;19915;-87
2022/11/13 08:23:54;;;;;;;15.88;8.13;;;5.80;99.90;;;;;;7407357;19;20339;-87
2022/11/13 08:26:24;;;;;;;12.88;7.18;;;5.80;99.90;;;;;;7406693;19;20237;-88
2022/11/13 08:28:53;;;;;;;15.10;9.23;;;5.80;99.90;;;;;;7407062;19;20344;-87
2022/11/13 08:31:22;;;;;;;14.63;8.38;;;5.80;99.90;;;;;;7407177;19;19923;-87
2022/11/13 08:33:50;;;;;;;12.43;7.85;;;5.90;99.90;;;;;;7406374;19;19926;-87
2022/11/13 08:36:19;;;;;;;12.35;8.68;;;5.90;99.90;;;;;;7406577;19;20351;-87
2022/11/13 08:38:52;;;;;;;13.77;7.60;;;6.00;99.90;;;;;;7406897;19;19978;-87
2022/11/13 08:41:21;;;;;;;12.82;8.52;;;6.00;99.90;;;;;;7406398;19;19994;-86
2022/11/13 08:43:52;;;;;;;14.48;7.90;;;6.00;99.90;;;;;;7406982;19;19934;-87
2022/11/13 08:46:21;;;;;;;14.65;8.30;;;6.00;99.90;;;;;;7406487;19;20554;-87
2022/11/13 08:48:50;;;;;;;15.63;9.02;;;6.00;99.90;;;;;;7406399;19;19922;-87
2022/11/13 08:51:20;;;;;;;14.43;9.38;;;6.10;99.90;;;;;;7406396;19;19925;-87
2022/11/13 08:53:51;;;;;;;13.57;9.10;;;6.10;99.90;;;;;;7406411;19;19947;-87
2022/11/13 08:56:20;;;;;;;16.02;9.80;;;6.10;99.90;;;;;;7405393;19;20336;-87
2022/11/13 08:58:49;;;;;;;13.15;9.10;;;6.20;99.90;;;;;;7406343;19;19921;-87
2022/11/13 09:01:21;;;;;;;15.23;8.63;;;6.20;99.90;;;;;;7404537;19;20260;-86
2022/11/13 09:03:50;;;;;;;15.15;10.30;;;6.40;99.90;;;;;;7406134;19;19915;-87
2022/11/13 09:06:19;;;;;;;13.75;8.80;;;6.50;99.90;;;;;;7406097;19;19934;-87
2022/11/13 09:08:48;;;;;;;14.82;10.18;;;6.60;99.90;;;;;;7406021;19;19919;-87
2022/11/13 09:11:20;;;;;;;12.82;8.55;;;6.60;99.90;;;;;;7405946;19;19915;-85
2022/11/13 09:13:49;;;;;;;14.77;8.40;;;6.70;99.90;;;;;;7406210;19;19917;-87
2022/11/13 09:16:17;;;;;;;14.30;9.13;;;6.80;99.90;;;;;;7405499;19;19918;-87
2022/11/13 09:18:51;;;;;;;13.52;8.75;;;6.80;99.90;;;;;;7405295;19;19926;-86
2022/11/13 09:21:20;;;;;;;15.02;9.55;;;6.90;99.90;;;;;;7405961;19;19918;-87
2022/11/13 09:23:49;;;;;;;13.77;9.38;;;6.90;99.90;;;;;;7405432;19;20373;-87
2022/11/13 09:26:20;;;;;;;13.95;9.20;;;7.00;99.90;;;;;;7404795;19;19925;-86
2022/11/13 09:28:50;;;;;;;13.95;8.32;;;7.10;99.90;;;;;;7405170;19;19926;-87
2022/11/13 09:31:19;;;;;;;13.00;7.50;;;7.20;99.90;;;;;;7405813;19;19911;-87
2022/11/13 09:33:48;;;;;;;12.90;8.50;;;7.30;99.90;;;;;;7404780;19;19917;-87
2022/11/13 09:36:17;;;;;;;12.82;8.55;;;7.40;99.90;;;;;;7404912;19;19921;-87
2022/11/13 09:38:46;;;;;;;14.38;9.75;;;7.60;99.90;;;;;;7405144;19;19918;-87
2022/11/13 09:41:18;;;;;;;12.35;7.80;;;7.70;99.90;;;;;;7404752;19;19943;-87
2022/11/13 09:43:53;;;;;;;12.52;8.80;;;7.80;99.90;;;;;;7404872;19;19922;-87
2022/11/13 09:46:32;;;;;;;14.35;9.13;;;8.00;99.90;;;;;;7404578;19;19923;-87
2022/11/13 09:49:05;;;;;;;13.77;7.07;;;8.00;99.90;;;;;;7404839;19;20265;-87
2022/11/13 09:51:38;;;;;;;12.20;8.55;;;8.20;99.90;;;;;;7405148;19;19914;-88
2022/11/13 09:54:08;;;;;;;12.60;9.07;;;8.30;99.90;;;;;;7404896;19;19915;-87
2022/11/13 09:56:41;;;;;;;12.50;9.15;;;8.40;99.90;;;;;;7403750;19;19926;-87
2022/11/13 09:59:24;;;;;;;14.60;9.35;;;8.50;99.90;;;;;;7404850;19;19915;-87
2022/11/13 10:01:59;;;;;;;14.30;9.05;;;8.70;99.90;;;;;;7404609;19;19918;-86
2022/11/13 10:04:37;;;;;;;13.95;8.85;;;8.70;99.90;;;;;;7404240;19;19906;-87
2022/11/13 10:07:20;;;;;;;12.60;7.90;;;8.90;99.90;;;;;;7404949;19;19936;-87
2022/11/13 10:10:07;;;;;;;11.43;8.15;;;9.00;99.90;;;;;;7404631;19;19915;-87
2022/11/13 10:12:36;;;;;;;10.63;6.20;;;9.10;99.90;;;;;;7401243;19;19922;-88
2022/11/13 10:15:11;;;;;;;14.32;7.13;;;9.20;99.90;;;;;;7404315;19;19917;-87
2022/11/13 10:17:44;;;;;;;11.90;6.72;;;9.30;99.90;;;;;;7404730;19;20284;-88
2022/11/13 10:20:17;;;;;;;13.35;7.18;;;9.40;99.90;;;;;;7404140;19;19919;-88
2022/11/13 10:22:52;;;;;;;11.35;6.40;;;9.40;99.90;;;;;;7404074;19;20328;-87
2022/11/13 10:25:23;;;;;;;10.68;6.85;;;9.50;99.90;;;;;;7403585;19;19923;-88
2022/11/13 10:27:57;;;;;;;9.95;7.10;;;9.60;99.90;;;;;;7402490;19;20481;-88
2022/11/13 10:30:30;;;;;;;13.02;7.30;;;9.70;99.90;;;;;;7403739;19;19923;-87
2022/11/13 10:33:07;;;;;;;12.23;8.30;;;9.70;99.90;;;;;;7404057;19;20321;-88
2022/11/13 10:35:48;;;;;;;11.75;7.55;;;9.80;99.90;;;;;;7402059;19;19932;-86
2022/11/13 10:38:25;;;;;;;14.40;8.27;;;9.80;99.90;;;;;;7403006;19;19922;-87
2022/11/13 10:40:54;;;;;;;10.95;8.30;;;9.80;99.90;;;;;;7403111;19;19915;-87
2022/11/13 10:43:25;;;;;;;11.82;7.35;;;9.90;99.90;;;;;;7403080;19;19914;-88
2022/11/13 10:46:02;;;;;;;12.93;7.55;;;10.00;99.90;;;;;;7403819;19;19915;-87
2022/11/13 10:48:36;;;;;;;11.10;7.28;;;9.90;99.90;;;;;;7403122;19;19918;-87
2022/11/13 10:51:08;;;;;;;10.02;6.85;;;10.00;99.90;;;;;;7403300;19;19943;-86
2022/11/13 10:53:44;;;;;;;13.07;8.38;;;10.10;99.90;;;;;;7403131;19;19914;-87
2022/11/13 10:56:22;;;;;;;11.10;8.50;;;10.20;99.90;;;;;;7402659;19;19966;-87
2022/11/13 10:59:02;;;;;;;11.63;8.07;;;10.40;99.90;;;;;;7400802;19;19918;-87
2022/11/13 11:01:34;;;;;;;10.35;6.38;;;10.50;99.90;;;;;;7402732;19;19935;-87
2022/11/13 11:04:05;;;;;;;11.93;6.35;;;10.50;99.90;;;;;;7402761;19;19910;-87
2022/11/13 11:06:36;;;;;;;12.25;7.38;;;10.60;99.90;;;;;;7402647;19;19918;-87
2022/11/13 11:09:16;;;;;;;12.25;7.70;;;10.70;99.90;;;;;;7402599;19;19915;-87
2022/11/13 11:14:33;;;;;;;12.18;7.00;;;10.80;99.90;;;;;;7401978;19;19947;-87
2022/11/13 11:17:07;;;;;;;11.02;6.97;;;10.90;99.90;;;;;;7405250;19;20252;-87
2022/11/13 11:19:40;;;;;;;14.73;6.60;;;11.00;99.90;;;;;;7402410;19;19915;-87
2022/11/13 11:22:15;;;;;;;10.95;7.00;;;11.10;99.90;;;;;;7401855;19;20297;-87
2022/11/13 11:24:50;;;;;;;12.27;6.53;;;11.10;99.90;;;;;;7409404;19;19911;-87
2022/11/13 11:27:24;;;;;;;9.93;7.72;;;11.10;99.90;;;;;;7407525;19;20034;-87
2022/11/13 11:30:01;;;;;;;11.38;7.00;;;11.10;99.90;;;;;;7408765;19;19915;-87
2022/11/13 11:32:40;;;;;;;12.10;8.98;;;11.20;99.90;;;;;;7408305;19;19970;-87
2022/11/13 11:35:16;;;;;;;10.60;6.95;;;11.30;99.90;;;;;;7406207;19;20267;-88
2022/11/13 11:37:53;;;;;;;11.55;7.38;;;11.20;99.90;;;;;;7407302;19;19915;-87
2022/11/13 11:40:29;;;;;;;11.75;8.63;;;11.30;99.90;;;;;;7408860;19;19911;-87
2022/11/13 11:43:05;;;;;;;;;;;11.30;99.90;;;;;;7410269;19;19919;-87
2022/11/13 11:45:38;;;;;;;10.10;6.22;;;11.40;99.90;;;;;;7408379;19;19918;-88
2022/11/13 11:48:14;;;;;;;10.30;7.43;;;11.50;99.90;;;;;;7407733;19;20337;-88
2022/11/13 11:50:49;;;;;;;10.13;6.38;;;11.50;99.90;;;;;;7408585;19;20325;-87
2022/11/13 11:53:27;;;;;;;10.27;7.07;;;11.50;99.90;;;;;;7407989;19;19942;-87
2022/11/13 11:56:10;;;;;;;10.38;7.45;;;11.60;99.90;;;;;;7407474;19;19911;-87
2022/11/13 11:59:08;;;;;;;9.95;7.72;;;11.70;99.90;;;;;;7405920;19;19945;-87
2022/11/13 12:02:10;;;;;;;11.93;7.30;;;11.80;99.90;;;;;;7408105;19;19962;-86
2022/11/13 12:04:57;;;;;;;10.65;6.97;;;11.80;99.90;;;;;;7405134;19;19939;-88
2022/11/13 12:07:35;;;;;;;10.07;6.45;;;11.80;99.90;;;;;;7408192;19;19939;-87
2022/11/13 12:10:11;;;;;;;10.23;6.40;;;11.90;99.90;;;;;;7407713;19;19981;-88
2022/11/13 12:12:46;;;;;;;;;;;12.00;99.90;;;;;;7409623;19;20351;-87
2022/11/13 12:15:20;;;;;;;10.32;5.75;;;12.00;99.90;;;;;;7410152;19;19923;-88
2022/11/13 12:18:01;;;;;;;9.85;6.05;;;12.10;99.90;;;;;;7406524;19;19919;-88
2022/11/13 12:20:39;;;;;;;10.10;5.55;;;12.20;99.90;;;;;;7407891;19;19942;-87
2022/11/13 12:23:23;;;;;;;10.43;5.95;;;12.30;99.90;;;;;;7407201;19;20340;-88
2022/11/13 12:25:57;;;;;;;10.63;7.13;;;12.40;99.90;;;;;;7406614;19;19913;-88
2022/11/13 12:28:35;;;;;;;11.05;6.90;;;12.40;99.90;;;;;;7406224;19;19955;-87
2022/11/13 12:31:13;;;;;;;10.55;7.28;;;12.40;99.90;;;;;;7406707;19;20353;-87
2022/11/13 12:33:49;;;;;;;10.20;7.10;;;12.50;99.90;;;;;;7406240;19;19933;-86
2022/11/13 12:36:22;;;;;;;9.48;6.32;;;12.50;99.90;;;;;;7404481;19;20259;-87
2022/11/13 12:38:58;;;;;;;9.20;6.47;;;12.60;99.90;;;;;;7404971;19;19911;-87
2022/11/13 12:41:34;;;;;;;11.38;7.60;;;12.50;99.90;;;;;;7405065;19;20415;-86
2022/11/13 12:44:20;;;;;;;11.00;8.60;;;12.60;99.90;;;;;;7406835;19;19935;-87
2022/11/13 12:46:50;;;;;;;11.15;7.72;;;12.70;99.90;;;;;;7406927;19;19994;-88
2022/11/13 12:49:30;;;;;;;10.15;6.72;;;12.70;99.90;;;;;;7406308;19;19974;-87
2022/11/13 12:52:04;;;;;;;12.40;6.63;;;12.70;99.90;;;;;;7406597;19;19935;-86
2022/11/13 12:54:34;;;;;;;11.02;7.50;;;12.70;99.90;;;;;;7406627;19;19977;-86
2022/11/13 12:57:20;;;;;;;11.45;7.63;;;12.70;99.90;;;;;;7406536;19;19975;-87
2022/11/13 12:59:52;;;;;;;12.85;7.90;;;12.70;99.90;;;;;;7406374;19;19910;-86
2022/11/13 13:02:52;;;;;;;10.80;7.43;;;12.70;99.90;;;;;;7405726;19;19911;-86
2022/11/13 13:05:29;;;;;;;10.25;6.57;;;12.80;99.90;;;;;;7405710;19;19915;-87
2022/11/13 13:08:39;;;;;;;11.23;6.82;;;12.80;99.90;;;;;;7404425;19;19954;-87
2022/11/13 13:11:21;;;;;;;9.98;6.07;;;12.80;99.90;;;;;;7406503;19;19919;-86